createdAt,value
2022-12-19T00:01:19.704Z,102086.78
2022-12-19T00:03:48.940Z,102081.59
2022-12-19T00:06:16.745Z,102061.94
2022-12-19T00:08:45.774Z,102068.81
2022-12-19T00:11:14.030Z,102077.28
2022-12-19T00:13:41.454Z,102072.97
2022-12-19T00:16:15.894Z,102063.38
2022-12-19T00:18:46.747Z,102032.50
2022-12-19T00:21:16.914Z,102051.34
2022-12-19T00:23:43.750Z,102056.19
2022-12-19T00:26:16.544Z,102050.25
2022-12-19T00:28:46.311Z,102034.88
2022-12-19T00:31:15.675Z,102040.78
2022-12-19T00:33:43.667Z,102038.19
2022-12-19T00:36:22.522Z,102024.22
2022-12-19T00:38:51.191Z,102023.31
2022-12-19T00:41:22.609Z,102029.41
2022-12-19T00:43:55.991Z,102031.06
2022-12-19T00:46:22.864Z,102030.13
2022-12-19T00:48:49.328Z,102012.00
2022-12-19T00:51:23.300Z,102022.19
2022-12-19T00:53:51.161Z,102018.63
2022-12-19T00:56:20.948Z,102011.81
2022-12-19T00:58:47.907Z,102027.31
2022-12-19T01:01:20.695Z,101986.59
2022-12-19T01:04:18.580Z,102017.50
2022-12-19T01:06:34.738Z,102009.72
2022-12-19T01:09:01.413Z,102006.09
2022-12-19T01:11:46.712Z,101980.09
2022-12-19T01:14:20.711Z,101972.19
2022-12-19T01:16:48.915Z,101990.13
2022-12-19T01:19:15.581Z,101993.47
2022-12-19T01:21:42.276Z,102006.44
2022-12-19T01:24:10.352Z,101994.34
2022-12-19T01:26:36.785Z,102005.47
2022-12-19T01:29:04.532Z,102001.03
2022-12-19T01:31:31.086Z,101996.66
2022-12-19T01:33:59.535Z,101975.09
2022-12-19T01:36:26.085Z,101983.50
2022-12-19T01:38:56.054Z,101981.56
2022-12-19T01:41:22.457Z,101970.28
2022-12-19T01:43:55.073Z,101967.63
2022-12-19T01:46:40.204Z,101954.56
2022-12-19T01:49:13.590Z,101962.41
2022-12-19T01:51:44.825Z,101978.00
2022-12-19T01:54:15.705Z,101934.66
2022-12-19T01:56:48.610Z,101957.69
2022-12-19T01:59:21.267Z,101967.25
2022-12-19T02:01:51.597Z,101951.38
2022-12-19T02:04:20.327Z,101942.56
2022-12-19T02:06:48.270Z,101923.50
2022-12-19T02:09:14.790Z,101935.31
2022-12-19T02:11:41.323Z,101924.63
2022-12-19T02:14:07.715Z,101920.19
2022-12-19T02:16:58.706Z,101915.50
2022-12-19T02:19:56.126Z,101911.91
2022-12-19T02:22:58.350Z,101907.38
2022-12-19T02:25:48.672Z,101899.47
2022-12-19T02:28:34.664Z,101900.28
2022-12-19T02:31:27.459Z,101897.53
2022-12-19T02:34:27.470Z,101896.66
2022-12-19T02:37:05.738Z,101894.78
2022-12-19T02:39:41.676Z,101899.13
2022-12-19T02:42:12.858Z,101893.13
2022-12-19T02:44:46.451Z,101888.69
2022-12-19T02:47:14.805Z,101898.28
2022-12-19T02:49:41.269Z,101894.78
2022-12-19T02:52:13.396Z,101906.16
2022-12-19T02:54:43.523Z,101907.94
2022-12-19T02:57:36.304Z,101882.03
2022-12-19T03:00:13.912Z,101883.56
2022-12-19T03:03:06.587Z,101893.81
2022-12-19T03:05:59.967Z,101835.13
2022-12-19T03:08:37.119Z,101875.59
2022-12-19T03:11:14.689Z,101853.25
2022-12-19T03:13:50.953Z,101863.34
2022-12-19T03:16:17.362Z,101864.91
2022-12-19T03:18:44.284Z,101855.34
2022-12-19T03:21:13.594Z,101849.09
2022-12-19T03:23:40.605Z,101849.09
2022-12-19T03:26:12.331Z,101837.97
2022-12-19T03:28:53.871Z,101851.88
2022-12-19T03:31:24.560Z,101842.09
2022-12-19T03:33:56.707Z,101841.31
2022-12-19T03:36:30.657Z,101805.06
2022-12-19T03:38:59.805Z,101837.72
2022-12-19T03:41:45.795Z,101818.66
2022-12-19T03:44:14.789Z,101835.03
2022-12-19T03:46:46.749Z,101825.31
2022-12-19T03:49:13.608Z,101835.03
2022-12-19T03:51:56.392Z,101820.09
2022-12-19T03:54:29.518Z,101820.06
2022-12-19T03:56:56.033Z,101818.03
2022-12-19T03:59:35.822Z,101816.38
2022-12-19T04:02:04.344Z,101815.50
2022-12-19T04:04:34.835Z,101801.88
2022-12-19T04:07:03.972Z,101792.44
2022-12-19T04:09:32.029Z,101813.94
2022-12-19T04:12:05.387Z,101803.22
2022-12-19T04:14:34.967Z,101795.44
2022-12-19T04:17:12.590Z,101765.19
2022-12-19T04:19:47.907Z,101792.66
2022-12-19T04:22:23.562Z,101781.53
2022-12-19T04:24:52.584Z,101794.69
2022-12-19T04:27:20.575Z,101783.97
2022-12-19T04:29:48.379Z,101784.66
2022-12-19T04:32:15.123Z,101757.13
2022-12-19T04:34:42.979Z,101768.94
2022-12-19T04:37:11.188Z,101765.28
2022-12-19T04:39:37.763Z,101765.22
2022-12-19T04:42:04.405Z,101741.56
2022-12-19T04:44:31.007Z,101725.16
2022-12-19T04:46:57.425Z,101736.03
2022-12-19T04:49:23.886Z,101706.63
2022-12-19T04:51:50.862Z,101708.97
2022-12-19T04:54:17.313Z,101690.84
2022-12-19T04:56:43.742Z,101709.50
2022-12-19T04:59:10.470Z,101708.59
2022-12-19T05:01:37.065Z,101704.91
2022-12-19T05:04:04.824Z,101694.28
2022-12-19T05:06:31.444Z,101700.31
2022-12-19T05:08:57.856Z,101713.28
2022-12-19T05:11:24.288Z,101694.81
2022-12-19T05:13:50.748Z,101698.22
2022-12-19T05:16:17.462Z,101685.81
2022-12-19T05:18:44.436Z,101684.09
2022-12-19T05:21:11.250Z,101665.81
2022-12-19T05:23:38.186Z,101670.03
2022-12-19T05:26:05.598Z,101663.75
2022-12-19T05:28:32.690Z,101662.06
2022-12-19T05:31:13.555Z,101677.69
2022-12-19T05:33:41.143Z,101673.22
2022-12-19T05:36:08.569Z,101664.41
2022-12-19T05:38:35.496Z,101667.78
2022-12-19T05:41:15.524Z,101652.66
2022-12-19T05:43:42.758Z,101657.75
2022-12-19T05:46:09.326Z,101656.66
2022-12-19T05:48:36.317Z,101661.72
2022-12-19T05:51:03.058Z,101656.53
2022-12-19T05:53:29.602Z,101628.81
2022-12-19T05:56:10.284Z,101662.03
2022-12-19T05:58:38.826Z,101655.56
2022-12-19T06:01:20.389Z,101650.03
2022-12-19T06:03:47.245Z,101641.94
2022-12-19T06:06:15.955Z,101648.75
2022-12-19T06:08:42.953Z,101630.19
2022-12-19T06:11:11.152Z,101635.19
2022-12-19T06:13:38.498Z,101618.47
2022-12-19T06:16:12.812Z,101618.09
2022-12-19T06:18:44.551Z,101585.22
2022-12-19T06:21:29.631Z,101606.28
2022-12-19T06:23:56.447Z,101608.78
2022-12-19T06:26:23.461Z,101582.13
2022-12-19T06:28:51.881Z,101616.47
2022-12-19T06:31:20.200Z,101615.47
2022-12-19T06:33:46.654Z,101619.75
2022-12-19T06:36:20.221Z,101603.88
2022-12-19T06:38:47.443Z,101613.47
2022-12-19T06:41:33.912Z,101584.84
2022-12-19T06:44:01.671Z,101602.56
2022-12-19T06:46:28.409Z,101593.66
2022-12-19T06:48:54.787Z,101592.94
2022-12-19T06:51:21.613Z,101597.94
2022-12-19T06:53:48.185Z,101592.66
2022-12-19T06:56:16.040Z,101556.63
2022-12-19T06:58:42.806Z,101582.25
2022-12-19T07:01:19.900Z,101593.84
2022-12-19T07:03:48.614Z,101567.28
2022-12-19T07:06:15.516Z,101585.06
2022-12-19T07:08:41.973Z,101591.28
2022-12-19T07:11:08.391Z,101597.34
2022-12-19T07:13:34.845Z,101590.91
2022-12-19T07:16:04.470Z,101595.34
2022-12-19T07:18:34.453Z,101583.72
2022-12-19T07:21:01.781Z,101578.72
2022-12-19T07:23:28.969Z,101592.31
2022-12-19T07:25:55.513Z,101586.09
2022-12-19T07:28:21.949Z,101563.78
2022-12-19T07:30:48.376Z,101586.97
2022-12-19T07:33:21.029Z,101581.69
2022-12-19T07:35:48.213Z,101579.69
2022-12-19T07:38:14.702Z,101575.28
2022-12-19T07:40:41.224Z,101580.41
2022-12-19T07:43:07.618Z,101576.72
2022-12-19T07:45:37.027Z,101578.34
2022-12-19T07:48:05.108Z,101574.88
2022-12-19T07:50:31.976Z,101578.28
2022-12-19T07:52:58.975Z,101553.38
2022-12-19T07:55:26.345Z,101576.44
2022-12-19T07:57:53.690Z,101579.84
2022-12-19T08:00:20.466Z,101546.25
2022-12-19T08:02:47.057Z,101569.28
2022-12-19T08:05:13.550Z,101575.44
2022-12-19T08:07:40.769Z,101570.94
2022-12-19T08:10:08.173Z,101564.72
2022-12-19T08:12:34.601Z,101569.94
2022-12-19T08:15:01.025Z,101567.19
2022-12-19T08:17:27.455Z,101572.38
2022-12-19T08:19:53.924Z,101556.56
2022-12-19T08:22:20.307Z,101561.84
2022-12-19T08:24:46.815Z,101541.66
2022-12-19T08:27:16.784Z,101556.41
2022-12-19T08:29:43.184Z,101556.25
2022-12-19T08:32:09.601Z,101541.28
2022-12-19T08:34:36.083Z,101534.44
2022-12-19T08:37:02.485Z,101529.78
2022-12-19T08:39:28.859Z,101534.91
2022-12-19T08:41:55.304Z,101537.28
2022-12-19T08:44:30.595Z,101534.34
2022-12-19T08:46:57.006Z,101516.25
2022-12-19T08:49:23.515Z,101528.06
2022-12-19T08:51:49.970Z,101535.75
2022-12-19T08:54:16.464Z,101519.72
2022-12-19T08:56:46.379Z,101522.22
2022-12-19T08:59:20.763Z,101517.78
2022-12-19T09:01:57.279Z,101495.69
2022-12-19T09:05:59.779Z,101520.19
2022-12-19T09:07:10.424Z,101526.91
2022-12-19T09:09:36.803Z,101520.63
2022-12-19T09:12:03.362Z,101517.22
2022-12-19T09:14:33.975Z,101525.75
2022-12-19T09:17:00.997Z,101511.69
2022-12-19T09:19:30.456Z,101509.81
2022-12-19T09:21:57.018Z,101482.97
2022-12-19T09:24:23.478Z,101516.22
2022-12-19T09:26:49.882Z,101504.66
2022-12-19T09:29:19.806Z,101505.41
2022-12-19T09:31:51.286Z,101500.06
2022-12-19T09:34:37.986Z,101496.13
2022-12-19T09:37:10.485Z,101494.94
2022-12-19T09:39:47.451Z,101479.63
2022-12-19T09:42:42.925Z,101489.22
2022-12-19T09:45:31.417Z,101493.41
2022-12-19T09:48:00.615Z,101490.59
2022-12-19T09:50:36.205Z,101490.44
2022-12-19T09:53:10.352Z,101450.72
2022-12-19T09:55:41.197Z,101487.63
2022-12-19T09:58:30.696Z,101480.25
2022-12-19T10:01:02.105Z,101479.31
2022-12-19T10:03:45.241Z,101468.59
2022-12-19T10:07:16.201Z,101463.22
2022-12-19T10:12:20.712Z,101462.97
2022-12-19T10:12:47.834Z,101472.69
2022-12-19T10:15:29.585Z,101459.19
2022-12-19T10:17:58.868Z,101459.19
2022-12-19T10:21:09.538Z,101463.19
2022-12-19T10:23:58.889Z,101447.41
2022-12-19T10:26:54.202Z,101455.94
2022-12-19T10:29:23.293Z,101454.22
2022-12-19T10:32:06.635Z,101423.03
2022-12-19T10:34:39.829Z,101450.28
2022-12-19T10:37:43.850Z,101437.81
2022-12-19T10:40:27.824Z,101419.50
2022-12-19T10:43:30.687Z,101431.81
2022-12-19T10:46:10.892Z,101430.88
2022-12-19T10:48:37.340Z,101426.44
2022-12-19T10:51:06.899Z,101428.72
2022-12-19T10:53:33.619Z,101427.59
2022-12-19T10:56:02.743Z,101422.09
2022-12-19T10:58:37.467Z,101396.31
2022-12-19T11:01:24.902Z,101407.56
2022-12-19T11:04:11.700Z,101409.00
2022-12-19T11:06:38.110Z,101414.31
2022-12-19T11:09:21.365Z,101410.41
2022-12-19T11:15:49.500Z,101405.50
2022-12-19T11:18:34.029Z,101403.25
2022-12-19T11:29:15.318Z,101384.13
2022-12-19T11:29:26.119Z,101394.84
2022-12-19T11:29:39.897Z,101380.84
2022-12-19T11:30:43.172Z,101393.50
2022-12-19T11:32:44.300Z,101372.69
2022-12-19T11:35:36.797Z,101379.50
2022-12-19T11:38:06.656Z,101378.72
2022-12-19T11:40:46.545Z,101368.81
2022-12-19T11:43:46.119Z,101371.94
2022-12-19T11:46:25.329Z,101367.94
2022-12-19T11:49:08.892Z,101364.16
2022-12-19T11:52:03.002Z,101362.16
2022-12-19T11:55:02.047Z,101335.03
2022-12-19T11:57:28.654Z,101336.72
2022-12-19T11:59:59.892Z,101356.00
2022-12-19T12:02:49.373Z,101345.84
2022-12-19T12:05:30.557Z,101348.97
2022-12-19T12:09:40.235Z,101330.53
2022-12-19T12:18:43.247Z,101354.41
2022-12-19T12:25:01.467Z,101345.13
2022-12-19T12:30:57.192Z,101332.19
2022-12-19T12:31:09.622Z,101325.66
2022-12-19T12:31:42.624Z,101325.25
2022-12-19T12:31:43.408Z,101335.00
2022-12-19T12:31:55.330Z,101328.72
2022-12-19T12:35:51.344Z,101321.22
2022-12-19T12:37:51.145Z,101318.47
2022-12-19T12:39:00.949Z,101322.63
2022-12-19T12:42:03.912Z,101333.78
2022-12-19T12:44:44.833Z,101310.00
2022-12-19T12:47:21.708Z,101312.22
2022-12-19T12:50:04.119Z,101300.34
2022-12-19T12:52:42.684Z,101303.66
2022-12-19T12:55:31.685Z,101287.19
2022-12-19T12:57:59.146Z,101295.25
2022-12-19T13:00:27.159Z,101299.78
2022-12-19T13:03:18.861Z,101300.22
2022-12-19T13:06:03.858Z,101296.41
2022-12-19T13:08:48.046Z,101279.00
2022-12-19T13:11:38.961Z,101300.41
2022-12-19T13:14:26.552Z,101291.41
2022-12-19T13:16:54.034Z,101297.47
2022-12-19T13:19:33.173Z,101286.53
2022-12-19T13:22:07.290Z,101290.13
2022-12-19T13:24:42.851Z,101287.88
2022-12-19T13:27:18.405Z,101283.31
2022-12-19T13:30:00.092Z,101280.44
2022-12-19T13:32:33.566Z,101287.34
2022-12-19T13:35:20.585Z,101260.38
2022-12-19T13:39:59.971Z,101286.03
2022-12-19T13:41:25.668Z,101248.16
2022-12-19T13:43:59.350Z,101274.16
2022-12-19T13:46:42.501Z,101286.13
2022-12-19T13:49:19.817Z,101275.00
2022-12-19T13:51:50.255Z,101289.53
2022-12-19T13:54:41.522Z,101285.19
2022-12-19T13:57:30.063Z,101288.00
2022-12-19T14:00:03.880Z,101269.00
2022-12-19T14:02:44.384Z,101294.69
2022-12-19T14:06:17.158Z,101294.34
2022-12-19T14:08:28.337Z,101298.81
2022-12-19T14:11:37.602Z,101283.59
2022-12-19T14:14:16.518Z,101285.09
2022-12-19T14:16:46.622Z,101259.91
2022-12-19T14:19:24.982Z,101267.56
2022-12-19T14:22:09.532Z,101267.13
2022-12-19T14:24:39.591Z,101271.38
2022-12-19T14:28:19.380Z,101225.13
2022-12-19T14:30:27.679Z,101276.44
2022-12-19T14:33:39.227Z,101264.84
2022-12-19T14:36:06.712Z,101268.44
2022-12-19T14:39:20.362Z,101297.34
2022-12-19T14:41:48.101Z,101286.84
2022-12-19T14:53:08.677Z,101266.91
2022-12-19T14:54:07.010Z,101276.22
2022-12-19T14:54:10.121Z,101282.47
2022-12-19T14:54:20.955Z,101287.34
2022-12-19T14:56:13.643Z,101279.06
2022-12-19T14:58:53.924Z,101282.66
2022-12-19T15:01:30.808Z,101282.31
2022-12-19T15:04:47.892Z,101270.50
2022-12-19T15:07:06.620Z,101263.38
2022-12-19T15:10:59.327Z,101262.19
2022-12-19T15:14:52.404Z,101271.00
2022-12-19T15:16:24.452Z,101252.28
2022-12-19T15:18:54.147Z,101253.13
2022-12-19T15:21:20.598Z,101250.47
2022-12-19T15:23:47.003Z,101241.03
2022-12-19T15:26:34.850Z,101265.50
2022-12-19T15:29:01.946Z,101253.16
2022-12-19T15:31:42.732Z,101262.63
2022-12-19T15:34:40.086Z,101221.59
2022-12-19T15:37:13.104Z,101252.94
2022-12-19T15:39:40.466Z,101250.88
2022-12-19T15:42:17.894Z,101243.50
2022-12-19T15:44:46.203Z,101255.97
2022-12-19T15:47:18.202Z,101247.88
2022-12-19T15:49:44.765Z,101210.00
2022-12-19T15:52:17.185Z,101234.28
2022-12-19T15:54:48.689Z,101223.63
2022-12-19T15:57:35.196Z,101217.97
2022-12-19T16:00:07.484Z,101215.31
2022-12-19T16:05:22.989Z,101206.59
2022-12-19T16:07:49.811Z,101208.63
2022-12-19T16:10:17.502Z,101222.69
2022-12-19T16:12:48.258Z,101222.69
2022-12-19T16:15:24.825Z,101216.16
2022-12-19T16:17:51.597Z,101206.84
2022-12-19T16:20:21.778Z,101208.06
2022-12-19T16:22:48.495Z,101196.69
2022-12-19T16:25:16.068Z,101204.44
2022-12-19T16:27:43.829Z,101208.41
2022-12-19T16:30:20.218Z,101206.50
2022-12-19T16:32:47.923Z,101191.63
2022-12-19T16:35:34.410Z,101184.47
2022-12-19T16:38:03.954Z,101189.81
2022-12-19T16:40:30.508Z,101184.59
2022-12-19T16:43:05.106Z,101195.25
2022-12-19T16:45:33.916Z,101202.97
2022-12-19T16:48:00.488Z,101196.00
2022-12-19T16:50:29.565Z,101194.31
2022-12-19T16:52:56.379Z,101197.53
2022-12-19T16:55:25.865Z,101189.81
2022-12-19T16:57:55.405Z,101170.72
2022-12-19T17:00:23.365Z,101188.34
2022-12-19T17:02:51.856Z,101190.16
2022-12-19T17:05:29.401Z,101198.16
2022-12-19T17:07:56.561Z,101188.34
2022-12-19T17:10:30.859Z,101195.03
2022-12-19T17:12:59.668Z,101200.56
2022-12-19T17:15:32.193Z,101190.41
2022-12-19T17:18:01.303Z,101198.38
2022-12-19T17:20:32.200Z,101199.22
2022-12-19T17:22:58.666Z,101188.34
2022-12-19T17:25:27.108Z,101182.19
2022-12-19T17:27:55.340Z,101195.16
2022-12-19T17:30:22.008Z,101188.47
2022-12-19T17:32:52.816Z,101161.50
2022-12-19T17:35:27.863Z,101183.88
2022-12-19T17:37:56.533Z,101194.53
2022-12-19T17:40:26.452Z,101188.47
2022-12-19T17:42:53.477Z,101194.88
2022-12-19T17:45:21.606Z,101192.81
2022-12-19T17:47:49.105Z,101203.47
2022-12-19T17:50:29.973Z,101178.47
2022-12-19T17:52:56.975Z,101199.34
2022-12-19T17:55:28.333Z,101199.59
2022-12-19T17:57:55.414Z,101200.34
2022-12-19T18:00:30.319Z,101208.09
2022-12-19T18:03:01.645Z,101206.38
2022-12-19T18:05:31.745Z,101194.16
2022-12-19T18:07:58.230Z,101202.03
2022-12-19T18:10:27.738Z,101208.09
2022-12-19T18:12:54.534Z,101207.47
2022-12-19T18:15:22.500Z,101200.56
2022-12-19T18:17:50.336Z,101204.94
2022-12-19T18:20:32.772Z,101196.84
2022-12-19T18:23:03.139Z,101195.03
2022-12-19T18:25:31.153Z,101192.56
2022-12-19T18:27:58.437Z,101196.94
2022-12-19T18:30:25.668Z,101186.06
2022-12-19T18:33:01.018Z,101192.34
2022-12-19T18:35:40.027Z,101178.06
2022-12-19T18:38:15.542Z,101187.16
2022-12-19T18:40:42.274Z,101176.38
2022-12-19T18:43:14.501Z,101188.97
2022-12-19T18:45:50.566Z,101191.50
2022-12-19T18:48:26.809Z,101188.25
2022-12-19T18:50:53.849Z,101194.28
2022-12-19T18:53:23.219Z,101186.19
2022-12-19T18:55:51.544Z,101202.75
2022-12-19T18:58:19.054Z,101210.59
2022-12-19T19:00:49.565Z,101180.72
2022-12-19T19:03:21.880Z,101198.03
2022-12-19T19:05:48.794Z,101213.53
2022-12-19T19:08:26.978Z,101196.81
2022-12-19T19:10:55.541Z,101197.66
2022-12-19T19:13:24.144Z,101208.66
2022-12-19T19:15:58.987Z,101194.50
2022-12-19T19:18:36.919Z,101198.88
2022-12-19T19:21:05.090Z,101194.50
2022-12-19T19:23:38.078Z,101195.97
2022-12-19T19:26:05.748Z,101209.50
2022-12-19T19:28:32.216Z,101159.56
2022-12-19T19:31:00.591Z,101201.66
2022-12-19T19:33:32.582Z,101196.59
2022-12-19T19:36:09.424Z,101204.19
2022-12-19T19:38:38.522Z,101181.47
2022-12-19T19:41:05.149Z,101182.56
2022-12-19T19:43:35.607Z,101185.22
2022-12-19T19:46:02.653Z,101188.00
2022-12-19T19:48:29.292Z,101186.31
2022-12-19T19:50:55.790Z,101187.88
2022-12-19T19:53:22.263Z,101199.50
2022-12-19T19:55:56.686Z,101198.25
2022-12-19T19:58:23.600Z,101166.34
2022-12-19T20:00:50.272Z,101212.78
2022-12-19T20:03:22.246Z,101209.41
2022-12-19T20:05:49.959Z,101212.78
2022-12-19T20:08:16.777Z,101202.28
2022-12-19T20:10:43.157Z,101199.25
2022-12-19T20:13:11.262Z,101193.19
2022-12-19T20:15:37.851Z,101212.06
2022-12-19T20:18:04.341Z,101189.31
2022-12-19T20:20:33.105Z,101227.91
2022-12-19T20:22:59.644Z,101206.00
2022-12-19T20:25:26.075Z,101200.69
2022-12-19T20:27:52.476Z,101212.06
2022-12-19T20:30:19.145Z,101207.72
2022-12-19T20:32:45.785Z,101213.75
2022-12-19T20:35:14.826Z,101187.88
2022-12-19T20:37:41.967Z,101201.78
2022-12-19T20:40:09.315Z,101188.72
2022-12-19T20:42:35.773Z,101195.72
2022-12-19T20:45:02.277Z,101200.59
2022-12-19T20:47:28.684Z,101201.56
2022-12-19T20:49:55.102Z,101200.31
2022-12-19T20:52:21.557Z,101203.47
2022-12-19T20:54:47.990Z,101206.00
2022-12-19T20:57:14.537Z,101201.53
2022-12-19T20:59:40.923Z,101205.91
2022-12-19T21:02:07.475Z,101180.03
2022-12-19T21:04:34.210Z,101168.16
2022-12-19T21:07:00.906Z,101181.94
2022-12-19T21:09:27.350Z,101219.19
2022-12-19T21:11:53.895Z,101219.94
2022-12-19T21:14:20.337Z,101228.88
2022-12-19T21:16:46.823Z,101232.63
2022-12-19T21:19:13.274Z,101199.13
2022-12-19T21:21:39.710Z,101226.47
2022-12-19T21:24:06.304Z,101219.56
2022-12-19T21:26:32.833Z,101235.28
2022-12-19T21:28:59.546Z,101230.09
2022-12-19T21:31:28.600Z,101188.84
2022-12-19T21:34:01.258Z,101214.84
2022-12-19T21:36:28.827Z,101216.56
2022-12-19T21:38:57.537Z,101216.56
2022-12-19T21:41:25.371Z,101215.69
2022-12-19T21:43:54.265Z,101210.38
2022-12-19T21:46:23.927Z,101204.09
2022-12-19T21:48:52.869Z,101211.34
2022-12-19T21:51:21.312Z,101178.19
2022-12-19T21:53:52.414Z,101214.00
2022-12-19T21:56:34.354Z,101201.66
2022-12-19T21:59:04.404Z,101215.69
2022-12-19T22:01:31.288Z,101203.38
2022-12-19T22:03:59.901Z,101198.41
2022-12-19T22:06:29.784Z,101200.81
2022-12-19T22:08:56.665Z,101194.03
2022-12-19T22:11:23.829Z,101189.44
2022-12-19T22:13:51.336Z,101196.47
2022-12-19T22:16:18.261Z,101192.34
2022-12-19T22:18:45.150Z,101194.16
2022-12-19T22:21:14.004Z,101189.22
2022-12-19T22:23:41.016Z,101192.72
2022-12-19T22:26:11.701Z,101195.25
2022-12-19T22:28:40.681Z,101183.91
2022-12-19T22:31:34.328Z,101185.81
2022-12-19T22:34:16.715Z,101182.19
2022-12-19T22:36:43.546Z,101188.34
2022-12-19T22:39:13.771Z,101196.84
2022-12-19T22:41:40.336Z,101197.78
2022-12-19T22:44:07.773Z,101195.03
2022-12-19T22:46:36.352Z,101198.41
2022-12-19T22:49:05.099Z,101212.78
2022-12-19T22:51:34.065Z,101180.84
2022-12-19T22:54:01.389Z,101189.56
2022-12-19T22:56:30.126Z,101196.22
2022-12-19T22:59:00.223Z,101197.66
2022-12-19T23:01:32.193Z,101197.28
2022-12-19T23:04:03.153Z,101195.03
2022-12-19T23:06:31.703Z,101193.56
2022-12-19T23:08:58.496Z,101201.53
2022-12-19T23:11:29.857Z,101197.56
2022-12-19T23:13:56.595Z,101204.69
2022-12-19T23:16:23.311Z,101193.53
2022-12-19T23:18:49.795Z,101208.66
2022-12-19T23:21:19.196Z,101189.78
2022-12-19T23:23:47.052Z,101182.44
2022-12-19T23:26:16.824Z,101173.34
2022-12-19T23:28:49.342Z,101187.63
2022-12-19T23:31:16.030Z,101188.84
2022-12-19T23:33:42.444Z,101172.66
2022-12-19T23:36:10.207Z,101195.72
2022-12-19T23:38:36.883Z,101188.59
2022-12-19T23:41:05.734Z,101187.22
2022-12-19T23:43:33.527Z,101187.84
2022-12-19T23:46:00.227Z,101181.56
2022-12-19T23:48:28.371Z,101183.59
2022-12-19T23:51:02.935Z,101150.50
2022-12-19T23:53:30.154Z,101174.53
2022-12-19T23:55:56.684Z,101188.09
2022-12-19T23:58:24.938Z,101193.16
